Clifton, Kansas
Current Conditions -  °F | °C
As of 1:55 AM on Thursday 23 Oct 2014 (Local Time) from KCNK Reporting Station
Overcast Overcast  
Wind Chill: 60°   Ceiling: 2400
Heat Index: 60°   Visibility: 8mi
Dew Point: 59°   Wind: 7mph
Humidity: 96%   Direction: 160°SSE
Pressure: 30.05"   Gusts: NA
Location:  39.57°N, 97.28°W
Report Text: KCNK 230655Z AUTO 16006KT 8SM BKN024 OVC030 16/15 A3005 RMK AO2 SLP164 T01560150
Loading
Personal Weather Stations






























Interactive Weather Map
Tropical Storm Tracking
New forecast layout! Learn more

10-Day Weather Forecast

Advertisements
Track Severe Weather on mobile